Time;durP1;ratioP1;P1;durP2;ratioP2;P2;SDS_P1;SDS_P2;PMS_P1;PMS_P2;Temp;Humidity;BMP_temperature;BMP_pressure;BME280_temperature;BME280_humidity;BME280_pressure;Samples;Min_cycle;Max_cycle;Signal;HPM_P1;HPM_P2
2023/02/19 00:05:57;;;;;;;6.45;2.92;;;;;;;;;;6188741;23;20171;-91
2023/02/19 00:13:00;;;;;;;5.10;2.33;;;;;;;;;;6189852;23;20191;-91
2023/02/19 00:16:15;;;;;;;4.50;2.40;;;;;;;;;;6189203;23;20163;-90
2023/02/19 00:22:51;;;;;;;8.27;3.30;;;;;;;;;;6205441;23;20225;-92
2023/02/19 00:29:25;;;;;;;5.55;3.60;;;;;;;;;;6188630;23;20191;-90
2023/02/19 00:32:43;;;;;;;6.05;3.55;;;;;;;;;;6187963;23;20228;-89
2023/02/19 00:35:55;;;;;;;6.75;4.35;;;;;;;;;;6187154;23;20244;-92
2023/02/19 00:39:00;;;;;;;8.30;5.20;;;;;;;;;;6186606;23;20612;-89
2023/02/19 00:42:05;;;;;;;6.93;4.65;;;;;;;;;;6183151;23;20242;-92
2023/02/19 00:45:12;;;;;;;5.13;3.70;;;;;;;;;;6183836;23;20168;-91
2023/02/19 00:48:20;;;;;;;6.03;4.05;;;;;;;;;;6183126;23;20231;-91
2023/02/19 00:51:26;;;;;;;5.22;3.63;;;;;;;;;;6184492;23;20167;-89
2023/02/19 00:54:31;;;;;;;4.95;3.45;;;;;;;;;;6184391;23;20170;-87
2023/02/19 00:57:36;;;;;;;5.13;2.80;;;;;;;;;;6183267;23;20172;-88
2023/02/19 01:00:47;;;;;;;4.78;2.88;;;;;;;;;;6182393;23;20215;-92
2023/02/19 01:03:54;;;;;;;4.80;3.20;;;;;;;;;;6183522;23;20173;-90
2023/02/19 01:07:00;;;;;;;4.30;2.90;;;;;;;;;;6186618;23;20172;-92
2023/02/19 01:10:15;;;;;;;5.40;2.95;;;;;;;;;;6188082;23;20687;-91
2023/02/19 01:13:25;;;;;;;3.72;2.65;;;;;;;;;;6187484;23;20151;-91
2023/02/19 01:16:36;;;;;;;3.58;2.80;;;;;;;;;;6206141;23;20186;-91
2023/02/19 01:19:54;;;;;;;4.25;2.85;;;;;;;;;;6186552;23;20172;-90
2023/02/19 01:23:00;;;;;;;3.72;2.80;;;;;;;;;;6187591;23;20627;-90
2023/02/19 01:26:07;;;;;;;3.80;2.50;;;;;;;;;;6187887;23;20187;-90
2023/02/19 01:32:33;;;;;;;4.80;3.17;;;;;;;;;;6204798;23;20211;-93
2023/02/19 01:35:41;;;;;;;3.83;2.78;;;;;;;;;;6188184;23;20196;-91
2023/02/19 01:38:53;;;;;;;4.72;3.30;;;;;;;;;;6187649;23;20171;-91
2023/02/19 01:42:01;;;;;;;5.38;3.20;;;;;;;;;;6185436;23;20175;-92
2023/02/19 01:45:26;;;;;;;5.15;3.53;;;;;;;;;;6185075;23;20195;-90
2023/02/19 01:48:34;;;;;;;4.72;3.08;;;;;;;;;;6189742;23;20179;-90
2023/02/19 01:51:43;;;;;;;4.60;3.05;;;;;;;;;;6183598;23;20172;-92
2023/02/19 01:54:49;;;;;;;3.10;2.42;;;;;;;;;;6184793;23;20180;-91
2023/02/19 01:57:56;;;;;;;4.22;2.92;;;;;;;;;;6182103;23;20171;-92
2023/02/19 02:01:09;;;;;;;4.35;3.08;;;;;;;;;;6183636;23;20217;-92
2023/02/19 02:04:15;;;;;;;5.47;3.00;;;;;;;;;;6184248;23;20238;-91
2023/02/19 02:10:45;;;;;;;4.57;2.90;;;;;;;;;;6183527;23;20744;-90
2023/02/19 02:14:01;;;;;;;6.43;3.30;;;;;;;;;;6182460;23;20218;-90
2023/02/19 02:17:11;;;;;;;5.28;3.13;;;;;;;;;;6183290;23;20216;-91
2023/02/19 02:20:27;;;;;;;5.22;3.33;;;;;;;;;;6181685;23;20171;-91
2023/02/19 02:23:49;;;;;;;5.40;3.33;;;;;;;;;;6183598;23;20168;-91
2023/02/19 02:26:59;;;;;;;7.32;3.85;;;;;;;;;;6185162;23;20291;-91
2023/02/19 02:30:15;;;;;;;7.45;4.10;;;;;;;;;;6185320;23;20195;-93
2023/02/19 02:33:26;;;;;;;7.18;3.60;;;;;;;;;;6190043;23;20187;-89
2023/02/19 02:36:38;;;;;;;6.18;3.80;;;;;;;;;;6188840;23;20172;-91
2023/02/19 02:39:47;;;;;;;6.63;3.85;;;;;;;;;;6188556;23;20222;-90
2023/02/19 02:46:17;;;;;;;6.80;3.90;;;;;;;;;;6204327;23;20492;-91
2023/02/19 02:49:23;;;;;;;5.75;3.72;;;;;;;;;;6186302;23;20171;-91
2023/02/19 02:55:51;;;;;;;7.00;4.03;;;;;;;;;;6202824;23;20187;-90
2023/02/19 02:58:58;;;;;;;8.02;4.20;;;;;;;;;;6187992;23;20557;-91
2023/02/19 03:02:10;;;;;;;7.65;4.50;;;;;;;;;;6186716;23;20192;-91
2023/02/19 03:08:47;;;;;;;7.78;4.20;;;;;;;;;;6187553;23;20500;-91
2023/02/19 03:22:21;;;;;;;8.18;4.50;;;;;;;;;;6187266;23;20232;-91
2023/02/19 03:32:27;;;;;;;10.27;5.93;;;;;;;;;;6188516;23;20627;-91
2023/02/19 03:35:43;;;;;;;9.55;5.80;;;;;;;;;;6186366;23;20243;-90
2023/02/19 03:38:52;;;;;;;11.95;6.40;;;;;;;;;;6187303;23;20188;-90
2023/02/19 03:42:01;;;;;;;12.27;6.38;;;;;;;;;;6183562;23;20188;-89
2023/02/19 03:45:15;;;;;;;12.88;6.53;;;;;;;;;;6182489;23;20291;-91
2023/02/19 03:48:34;;;;;;;11.82;6.03;;;;;;;;;;6182036;23;20175;-91
2023/02/19 03:51:44;;;;;;;12.27;6.75;;;;;;;;;;6181553;23;20327;-91
2023/02/19 03:54:53;;;;;;;19.27;6.25;;;;;;;;;;6182600;23;20176;-92
2023/02/19 03:58:03;;;;;;;10.68;5.35;;;;;;;;;;6167617;23;20249;-92
2023/02/19 04:01:14;;;;;;;9.48;5.88;;;;;;;;;;6183656;23;20722;-91
2023/02/19 04:04:20;;;;;;;10.88;5.68;;;;;;;;;;6183674;23;20191;-90
2023/02/19 04:07:29;;;;;;;20.63;10.00;;;;;;;;;;6182393;23;20167;-92
2023/02/19 04:10:35;;;;;;;16.60;9.40;;;;;;;;;;6201248;23;20195;-91
2023/02/19 04:13:44;;;;;;;11.88;6.40;;;;;;;;;;6184695;23;20187;-88
2023/02/19 04:16:52;;;;;;;22.40;9.98;;;;;;;;;;6183099;23;20172;-90
2023/02/19 04:20:00;;;;;;;20.67;10.18;;;;;;;;;;6182402;23;20168;-91
2023/02/19 04:23:07;;;;;;;16.13;8.43;;;;;;;;;;6199348;23;20172;-91
2023/02/19 04:26:14;;;;;;;19.83;9.50;;;;;;;;;;6182360;23;20168;-90
2023/02/19 04:29:19;;;;;;;12.75;6.68;;;;;;;;;;6181120;23;20172;-89
2023/02/19 04:32:24;;;;;;;22.77;8.70;;;;;;;;;;6181938;23;20238;-91
2023/02/19 04:35:29;;;;;;;15.93;8.40;;;;;;;;;;6181984;23;20198;-90
2023/02/19 04:38:36;;;;;;;21.50;8.68;;;;;;;;;;6181479;23;20175;-91
2023/02/19 04:41:41;;;;;;;21.33;8.75;;;;;;;;;;6180007;23;20167;-91
2023/02/19 04:44:46;;;;;;;16.65;7.35;;;;;;;;;;6180412;23;20245;-91
2023/02/19 04:47:52;;;;;;;15.70;6.32;;;;;;;;;;6181394;23;20176;-91
2023/02/19 04:50:57;;;;;;;11.18;5.85;;;;;;;;;;6181810;23;20198;-90
2023/02/19 04:54:04;;;;;;;11.40;6.22;;;;;;;;;;6181936;23;20167;-90
2023/02/19 04:57:09;;;;;;;9.48;5.68;;;;;;;;;;6182779;23;20179;-92
2023/02/19 05:00:23;;;;;;;10.80;5.35;;;;;;;;;;6180981;23;20215;-92
2023/02/19 05:03:33;;;;;;;9.75;6.07;;;;;;;;;;6181004;23;20172;-91
2023/02/19 05:06:38;;;;;;;9.40;5.40;;;;;;;;;;6181057;23;20171;-90
2023/02/19 05:09:49;;;;;;;9.02;5.18;;;;;;;;;;6182476;23;20498;-91
2023/02/19 05:12:55;;;;;;;9.20;5.50;;;;;;;;;;6181663;23;20180;-91
2023/02/19 05:16:01;;;;;;;9.93;5.65;;;;;;;;;;6180797;23;20175;-91
2023/02/19 05:19:07;;;;;;;15.45;5.35;;;;;;;;;;6180367;23;20175;-91
2023/02/19 05:22:12;;;;;;;12.07;6.55;;;;;;;;;;6181765;23;20626;-91
2023/02/19 05:25:19;;;;;;;12.35;6.25;;;;;;;;;;6181194;23;20241;-90
2023/02/19 05:28:27;;;;;;;14.05;6.53;;;;;;;;;;6179900;23;20175;-90
2023/02/19 05:31:33;;;;;;;11.63;5.68;;;;;;;;;;6179173;23;20283;-91
2023/02/19 05:34:38;;;;;;;11.93;5.75;;;;;;;;;;6179958;23;20260;-91
2023/02/19 05:37:44;;;;;;;10.50;6.10;;;;;;;;;;6182213;23;20175;-91
2023/02/19 05:40:50;;;;;;;11.32;5.80;;;;;;;;;;6181642;23;20167;-91
2023/02/19 05:43:56;;;;;;;7.93;4.30;;;;;;;;;;6181163;23;20179;-91
2023/02/19 05:47:01;;;;;;;9.18;4.32;;;;;;;;;;6181260;23;20188;-92
2023/02/19 05:50:07;;;;;;;9.50;4.28;;;;;;;;;;6179853;23;20176;-92
2023/02/19 05:53:12;;;;;;;9.85;3.17;;;;;;;;;;6180057;23;20180;-90
2023/02/19 05:56:25;;;;;;;6.82;3.33;;;;;;;;;;6180693;23;20171;-93
2023/02/19 05:59:30;;;;;;;4.82;2.50;;;;;;;;;;6182987;23;20262;-91
2023/02/19 06:02:37;;;;;;;6.88;2.60;;;;;;;;;;6182936;23;20159;-92
2023/02/19 06:05:42;;;;;;;8.35;2.67;;;;;;;;;;6182392;23;20214;-90
2023/02/19 06:08:49;;;;;;;4.82;2.70;;;;;;;;;;6183213;23;20183;-89
2023/02/19 06:11:55;;;;;;;5.13;2.88;;;;;;;;;;6182545;23;20521;-92
2023/02/19 06:15:01;;;;;;;4.22;2.17;;;;;;;;;;6182798;23;20246;-92
2023/02/19 06:18:06;;;;;;;7.20;2.45;;;;;;;;;;6182995;23;20171;-91
2023/02/19 06:21:13;;;;;;;4.30;2.30;;;;;;;;;;6181574;23;20167;-90
2023/02/19 06:24:18;;;;;;;7.53;2.80;;;;;;;;;;6181619;23;20200;-91
2023/02/19 06:27:25;;;;;;;5.03;2.58;;;;;;;;;;6181378;23;20195;-91
2023/02/19 06:30:30;;;;;;;4.80;2.80;;;;;;;;;;6181835;23;20271;-92
2023/02/19 06:33:37;;;;;;;7.45;2.88;;;;;;;;;;6182947;23;20167;-91
2023/02/19 06:36:42;;;;;;;5.32;3.05;;;;;;;;;;6181837;23;20191;-91
2023/02/19 06:39:47;;;;;;;5.60;3.15;;;;;;;;;;6182115;23;20176;-90
2023/02/19 06:42:54;;;;;;;4.63;2.70;;;;;;;;;;6181996;23;20219;-91
2023/02/19 06:45:59;;;;;;;7.10;3.28;;;;;;;;;;6183427;23;20243;-91
2023/02/19 06:49:05;;;;;;;8.32;3.65;;;;;;;;;;6183485;23;20167;-91
2023/02/19 06:52:10;;;;;;;8.05;3.00;;;;;;;;;;6182910;23;20191;-91
2023/02/19 06:55:16;;;;;;;7.32;3.35;;;;;;;;;;6183830;23;20251;-91
2023/02/19 06:58:22;;;;;;;5.03;2.88;;;;;;;;;;6183600;23;20253;-91
2023/02/19 07:01:29;;;;;;;9.10;2.92;;;;;;;;;;6183592;23;20175;-90
2023/02/19 07:04:34;;;;;;;5.82;2.65;;;;;;;;;;6184151;23;20502;-90
2023/02/19 07:07:39;;;;;;;7.15;3.30;;;;;;;;;;6183338;23;20171;-92
2023/02/19 07:10:45;;;;;;;8.07;3.30;;;;;;;;;;6182331;23;20199;-90
2023/02/19 07:13:56;;;;;;;3.88;2.15;;;;;;;;;;6182338;23;20170;-91
2023/02/19 07:17:01;;;;;;;8.38;2.88;;;;;;;;;;6182958;23;20179;-91
2023/02/19 07:20:07;;;;;;;4.20;2.65;;;;;;;;;;6181674;23;20172;-90
2023/02/19 07:23:14;;;;;;;4.35;2.22;;;;;;;;;;6181040;23;20216;-91
2023/02/19 07:26:21;;;;;;;4.15;2.22;;;;;;;;;;6180284;23;20195;-91
2023/02/19 07:29:27;;;;;;;0.52;0.52;;;;;;;;;;6181817;23;20176;-92
2023/02/19 07:32:32;;;;;;;0.52;0.52;;;;;;;;;;6182026;23;20655;-91
2023/02/19 07:35:37;;;;;;;0.30;0.30;;;;;;;;;;6182713;23;20191;-90
2023/02/19 07:38:43;;;;;;;10.68;1.75;;;;;;;;;;6182836;23;20267;-90
2023/02/19 07:41:48;;;;;;;0.20;0.20;;;;;;;;;;6182875;23;20184;-92
2023/02/19 07:45:06;;;;;;;0.47;0.47;;;;;;;;;;6183754;23;20176;-91
2023/02/19 07:48:11;;;;;;;0.30;0.30;;;;;;;;;;6183386;23;20184;-91
2023/02/19 07:51:17;;;;;;;0.20;0.20;;;;;;;;;;6184165;23;20194;-92
2023/02/19 07:54:22;;;;;;;0.30;0.30;;;;;;;;;;6182848;23;20175;-91
2023/02/19 07:57:30;;;;;;;0.40;0.40;;;;;;;;;;6182175;23;20241;-92
2023/02/19 08:00:36;;;;;;;0.30;0.30;;;;;;;;;;6182626;23;20175;-91
2023/02/19 08:03:42;;;;;;;1.52;0.57;;;;;;;;;;6183679;23;20187;-91
2023/02/19 08:06:47;;;;;;;0.20;0.20;;;;;;;;;;6184205;23;20228;-92
2023/02/19 08:13:18;;;;;;;0.32;0.32;;;;;;;;;;6183722;23;20215;-91
2023/02/19 08:13:21;;;;;;;0.20;0.20;;;;;;;;;;6182659;23;20199;-89
2023/02/19 08:16:28;;;;;;;0.30;0.30;;;;;;;;;;6181200;23;20171;-92
2023/02/19 08:19:33;;;;;;;3.83;0.95;;;;;;;;;;6181476;23;20167;-91
2023/02/19 08:22:38;;;;;;;0.75;0.60;;;;;;;;;;6181814;23;20152;-90
2023/02/19 08:25:44;;;;;;;0.50;0.35;;;;;;;;;;6182180;23;20828;-89
2023/02/19 08:28:49;;;;;;;0.45;0.45;;;;;;;;;;6182505;23;20160;-91
2023/02/19 08:31:57;;;;;;;0.90;0.40;;;;;;;;;;6182194;23;20199;-91
2023/02/19 08:35:02;;;;;;;0.30;0.30;;;;;;;;;;6180878;23;20207;-88
2023/02/19 08:38:07;;;;;;;0.20;0.20;;;;;;;;;;6181928;23;20163;-90
2023/02/19 08:41:13;;;;;;;0.30;0.30;;;;;;;;;;6182482;23;20168;-90
2023/02/19 08:44:19;;;;;;;2.42;0.85;;;;;;;;;;6182006;23;20172;-89
2023/02/19 08:47:26;;;;;;;0.20;0.20;;;;;;;;;;6182802;23;20175;-91
2023/02/19 08:50:31;;;;;;;0.20;0.20;;;;;;;;;;6183210;23;20315;-90
2023/02/19 08:53:38;;;;;;;0.45;0.35;;;;;;;;;;6182646;23;20168;-90
2023/02/19 08:56:43;;;;;;;0.28;0.28;;;;;;;;;;6182758;23;20169;-91
2023/02/19 08:59:48;;;;;;;0.20;0.20;;;;;;;;;;6182041;23;20172;-90
2023/02/19 09:02:58;;;;;;;0.50;0.50;;;;;;;;;;6182693;23;20175;-90
2023/02/19 09:06:03;;;;;;;0.20;0.20;;;;;;;;;;6183156;23;20217;-92
2023/02/19 09:09:10;;;;;;;0.20;0.20;;;;;;;;;;6184739;23;20623;-89
2023/02/19 09:12:15;;;;;;;0.20;0.20;;;;;;;;;;6184509;23;20195;-89
2023/02/19 09:15:20;;;;;;;0.43;0.43;;;;;;;;;;6182174;23;20172;-89
2023/02/19 09:18:58;;;;;;;0.30;0.30;;;;;;;;;;6182578;23;20215;-90
2023/02/19 09:22:06;;;;;;;0.57;0.57;;;;;;;;;;6182146;23;20164;-90
2023/02/19 09:25:11;;;;;;;0.20;0.20;;;;;;;;;;6183239;23;20215;-90
2023/02/19 09:28:17;;;;;;;0.20;0.20;;;;;;;;;;6181882;23;20175;-90
2023/02/19 09:31:24;;;;;;;0.20;0.20;;;;;;;;;;6181892;23;20268;-90
2023/02/19 09:34:29;;;;;;;0.20;0.20;;;;;;;;;;6184190;23;20531;-93
2023/02/19 09:37:38;;;;;;;0.30;0.30;;;;;;;;;;6184146;23;20171;-91
2023/02/19 09:40:45;;;;;;;0.30;0.30;;;;;;;;;;6184881;23;20176;-91
2023/02/19 09:43:51;;;;;;;0.32;0.32;;;;;;;;;;6180556;23;20207;-89
2023/02/19 09:46:56;;;;;;;0.32;0.32;;;;;;;;;;6183235;23;20159;-89
2023/02/19 09:50:06;;;;;;;0.20;0.20;;;;;;;;;;6182563;23;20203;-90
2023/02/19 09:53:18;;;;;;;0.50;0.50;;;;;;;;;;6183974;23;20179;-91
2023/02/19 09:56:23;;;;;;;0.32;0.32;;;;;;;;;;6184122;23;20171;-90
2023/02/19 09:59:30;;;;;;;0.30;0.30;;;;;;;;;;6181917;23;20172;-88
2023/02/19 10:02:42;;;;;;;0.30;0.30;;;;;;;;;;6182042;23;20569;-92
2023/02/19 10:05:51;;;;;;;0.30;0.30;;;;;;;;;;6185364;23;20225;-90
2023/02/19 10:09:06;;;;;;;0.30;0.30;;;;;;;;;;6187508;23;20176;-89
2023/02/19 10:12:15;;;;;;;0.30;0.30;;;;;;;;;;6182936;23;20265;-91
2023/02/19 10:15:24;;;;;;;0.30;0.30;;;;;;;;;;6182031;23;20172;-91
2023/02/19 10:18:30;;;;;;;0.20;0.20;;;;;;;;;;6185130;23;20155;-92
2023/02/19 10:21:38;;;;;;;0.20;0.20;;;;;;;;;;6184837;23;20211;-90
2023/02/19 10:24:46;;;;;;;0.20;0.20;;;;;;;;;;6184835;23;20219;-90
2023/02/19 10:27:52;;;;;;;0.30;0.30;;;;;;;;;;6185128;23;20176;-88
2023/02/19 10:30:59;;;;;;;0.70;0.60;;;;;;;;;;6184422;23;20168;-90
2023/02/19 10:34:06;;;;;;;0.30;0.30;;;;;;;;;;6187608;23;20635;-89
2023/02/19 10:37:14;;;;;;;0.20;0.20;;;;;;;;;;6184542;23;20175;-90
2023/02/19 10:40:26;;;;;;;0.30;0.30;;;;;;;;;;6184703;23;20184;-89
2023/02/19 10:43:33;;;;;;;0.20;0.20;;;;;;;;;;6184568;23;20622;-87
2023/02/19 10:47:16;;;;;;;0.20;0.20;;;;;;;;;;6184734;23;20228;-90
2023/02/19 10:50:27;;;;;;;0.30;0.30;;;;;;;;;;6149112;23;20196;-89
2023/02/19 10:53:45;;;;;;;0.30;0.30;;;;;;;;;;6154892;23;20197;-90
2023/02/19 10:56:53;;;;;;;0.25;0.25;;;;;;;;;;6162295;23;20245;-89
2023/02/19 11:00:00;;;;;;;0.35;0.35;;;;;;;;;;6162457;23;20156;-87
2023/02/19 11:03:19;;;;;;;0.30;0.30;;;;;;;;;;6153002;23;20168;-88
2023/02/19 11:06:27;;;;;;;0.30;0.30;;;;;;;;;;6155224;23;20631;-89
2023/02/19 11:09:35;;;;;;;0.65;0.65;;;;;;;;;;6152838;23;20189;-88
2023/02/19 11:13:00;;;;;;;0.30;0.30;;;;;;;;;;6152046;23;20236;-86
2023/02/19 11:16:06;;;;;;;0.30;0.30;;;;;;;;;;6156328;23;20184;-89
2023/02/19 11:19:33;;;;;;;2.17;0.43;;;;;;;;;;6152355;23;20335;-89
2023/02/19 11:22:40;;;;;;;0.40;0.40;;;;;;;;;;6153692;23;20212;-90
2023/02/19 11:25:46;;;;;;;0.20;0.20;;;;;;;;;;6153369;23;20220;-89
2023/02/19 11:28:57;;;;;;;0.28;0.28;;;;;;;;;;6152079;23;20172;-91
2023/02/19 11:32:17;;;;;;;0.30;0.30;;;;;;;;;;6150160;23;20730;-88
2023/02/19 11:35:25;;;;;;;0.38;0.38;;;;;;;;;;6151882;23;20245;-90
2023/02/19 11:38:30;;;;;;;0.30;0.30;;;;;;;;;;6150701;23;20169;-88
2023/02/19 11:41:46;;;;;;;2.40;0.80;;;;;;;;;;6151617;23;20172;-89
2023/02/19 11:45:01;;;;;;;1.33;0.68;;;;;;;;;;6158147;23;20229;-89
2023/02/19 11:48:14;;;;;;;2.67;0.70;;;;;;;;;;6154726;23;20169;-90
2023/02/19 11:51:26;;;;;;;2.00;0.90;;;;;;;;;;6153338;23;20225;-90
2023/02/19 11:54:49;;;;;;;1.85;0.80;;;;;;;;;;6153599;23;20205;-91
2023/02/19 11:57:58;;;;;;;3.25;1.60;;;;;;;;;;6152626;23;20176;-91
2023/02/19 12:01:07;;;;;;;1.02;0.85;;;;;;;;;;6151703;23;20233;-89
2023/02/19 12:04:38;;;;;;;2.00;1.00;;;;;;;;;;6153685;23;20605;-88
2023/02/19 12:07:52;;;;;;;4.45;0.85;;;;;;;;;;6156049;23;20171;-89
2023/02/19 12:11:04;;;;;;;2.40;1.10;;;;;;;;;;6153528;23;20176;-89
2023/02/19 12:14:20;;;;;;;1.70;0.80;;;;;;;;;;6151923;23;20169;-90
2023/02/19 12:17:34;;;;;;;5.07;1.25;;;;;;;;;;6151173;23;20220;-91
2023/02/19 12:20:44;;;;;;;2.95;1.10;;;;;;;;;;6153270;23;20216;-89
2023/02/19 12:24:02;;;;;;;2.60;0.90;;;;;;;;;;6152348;23;20226;-88
2023/02/19 12:27:13;;;;;;;1.25;0.90;;;;;;;;;;6150455;23;20184;-89
2023/02/19 12:30:26;;;;;;;3.95;1.10;;;;;;;;;;6151759;23;20242;-90
2023/02/19 12:33:49;;;;;;;2.17;1.10;;;;;;;;;;6152557;23;20197;-90
2023/02/19 12:36:58;;;;;;;3.55;1.20;;;;;;;;;;6153535;23;20627;-90
2023/02/19 12:40:15;;;;;;;2.50;0.90;;;;;;;;;;6154310;23;20212;-92
2023/02/19 12:43:22;;;;;;;2.03;0.90;;;;;;;;;;6155369;23;20173;-89
2023/02/19 12:46:30;;;;;;;2.45;1.20;;;;;;;;;;6154036;23;20172;-90
2023/02/19 12:49:42;;;;;;;3.05;1.00;;;;;;;;;;6155226;23;20169;-90
2023/02/19 12:52:49;;;;;;;2.13;0.98;;;;;;;;;;6154442;23;20193;-90
2023/02/19 12:55:57;;;;;;;2.30;1.20;;;;;;;;;;6152502;23;20236;-88
2023/02/19 12:59:05;;;;;;;1.50;1.00;;;;;;;;;;6151234;23;20304;-91
2023/02/19 13:02:15;;;;;;;1.98;1.20;;;;;;;;;;6151354;23;20184;-90
2023/02/19 13:05:23;;;;;;;1.30;1.00;;;;;;;;;;6153237;23;20168;-89
2023/02/19 13:08:33;;;;;;;2.60;1.10;;;;;;;;;;6151969;23;20181;-90
2023/02/19 13:11:42;;;;;;;2.70;0.90;;;;;;;;;;6152163;23;20263;-89
2023/02/19 13:14:50;;;;;;;3.05;1.08;;;;;;;;;;6151469;23;20244;-90
2023/02/19 13:17:56;;;;;;;1.95;0.82;;;;;;;;;;6152940;23;20168;-89
2023/02/19 13:21:07;;;;;;;2.53;1.10;;;;;;;;;;6154149;23;20628;-89
2023/02/19 13:24:14;;;;;;;2.65;1.25;;;;;;;;;;6155845;23;20225;-94
2023/02/19 13:27:31;;;;;;;3.63;0.88;;;;;;;;;;6154092;23;20196;-91
2023/02/19 13:30:53;;;;;;;1.40;0.88;;;;;;;;;;6154502;23;20192;-89
2023/02/19 13:34:04;;;;;;;2.45;1.20;;;;;;;;;;6156457;23;20231;-91
2023/02/19 13:37:11;;;;;;;1.52;0.82;;;;;;;;;;6155764;23;20509;-94
2023/02/19 13:43:45;;;;;;;2.78;1.08;;;;;;;;;;6154215;23;20173;-90
2023/02/19 13:46:51;;;;;;;2.45;0.82;;;;;;;;;;6153676;23;20184;-88
2023/02/19 13:50:06;;;;;;;2.17;1.20;;;;;;;;;;6152273;23;20176;-91
2023/02/19 13:53:29;;;;;;;3.63;1.30;;;;;;;;;;6152455;23;20265;-91
2023/02/19 13:56:39;;;;;;;2.75;1.30;;;;;;;;;;6151703;23;20160;-90
2023/02/19 13:59:47;;;;;;;5.70;1.10;;;;;;;;;;6153799;23;20193;-89
2023/02/19 14:03:14;;;;;;;1.63;1.17;;;;;;;;;;6152229;23;20183;-92
2023/02/19 14:06:22;;;;;;;4.00;1.13;;;;;;;;;;6155145;23;20172;-90
2023/02/19 14:09:46;;;;;;;2.58;1.20;;;;;;;;;;6154525;23;20217;-89
2023/02/19 14:12:51;;;;;;;5.68;1.15;;;;;;;;;;6153129;23;20196;-90
2023/02/19 14:15:58;;;;;;;3.40;1.45;;;;;;;;;;6153517;23;20206;-91
2023/02/19 14:19:14;;;;;;;1.85;1.08;;;;;;;;;;6154888;23;20184;-92
2023/02/19 14:22:39;;;;;;;4.60;1.05;;;;;;;;;;6154482;23;20172;-89
2023/02/19 14:25:50;;;;;;;4.45;1.20;;;;;;;;;;6154731;23;20172;-90
2023/02/19 14:28:56;;;;;;;3.15;1.20;;;;;;;;;;6154500;23;20177;-90
2023/02/19 14:32:06;;;;;;;3.38;1.20;;;;;;;;;;6154319;23;20193;-91
2023/02/19 14:35:18;;;;;;;2.42;1.00;;;;;;;;;;6154403;23;20192;-91
2023/02/19 14:38:26;;;;;;;4.63;1.40;;;;;;;;;;6157029;23;20216;-91
2023/02/19 14:41:33;;;;;;;1.98;1.17;;;;;;;;;;6155587;23;20192;-92
2023/02/19 14:44:44;;;;;;;2.28;1.20;;;;;;;;;;6151970;23;20232;-90
2023/02/19 14:47:52;;;;;;;3.17;1.30;;;;;;;;;;6152501;23;20213;-93
2023/02/19 14:51:00;;;;;;;2.20;1.02;;;;;;;;;;6153522;23;20179;-90
2023/02/19 14:54:11;;;;;;;4.50;1.10;;;;;;;;;;6152933;23;20192;-92
2023/02/19 14:57:18;;;;;;;4.78;1.40;;;;;;;;;;6156204;23;20275;-90
2023/02/19 15:00:31;;;;;;;1.42;0.90;;;;;;;;;;6153157;23;20315;-89
2023/02/19 15:03:40;;;;;;;4.55;1.15;;;;;;;;;;6158664;23;20168;-92
2023/02/19 15:06:47;;;;;;;3.15;1.10;;;;;;;;;;6155921;23;20461;-90
2023/02/19 15:09:55;;;;;;;3.30;1.63;;;;;;;;;;6155085;23;20173;-93
2023/02/19 15:13:03;;;;;;;7.10;1.27;;;;;;;;;;6155170;23;20195;-92
2023/02/19 15:16:08;;;;;;;2.55;1.30;;;;;;;;;;6155533;23;20167;-89
2023/02/19 15:19:42;;;;;;;2.50;1.17;;;;;;;;;;6155758;23;20221;-91
2023/02/19 15:22:49;;;;;;;4.35;1.30;;;;;;;;;;6154439;23;20169;-91
2023/02/19 15:25:56;;;;;;;2.25;1.00;;;;;;;;;;6157783;23;20197;-89
2023/02/19 15:29:03;;;;;;;2.35;0.90;;;;;;;;;;6155712;23;20217;-88
2023/02/19 15:32:16;;;;;;;3.83;1.40;;;;;;;;;;6153716;23;20172;-91
2023/02/19 15:35:27;;;;;;;3.72;1.63;;;;;;;;;;6156145;23;20192;-91
2023/02/19 15:38:34;;;;;;;2.58;1.27;;;;;;;;;;6153883;23;20257;-90
2023/02/19 15:41:41;;;;;;;2.67;1.10;;;;;;;;;;6155224;23;20156;-90
2023/02/19 15:44:50;;;;;;;3.95;1.42;;;;;;;;;;6155337;23;20168;-91
2023/02/19 15:47:57;;;;;;;1.88;0.93;;;;;;;;;;6154331;23;20177;-89
2023/02/19 15:51:07;;;;;;;2.42;1.08;;;;;;;;;;6154887;23;20189;-91
2023/02/19 15:54:16;;;;;;;2.55;1.20;;;;;;;;;;6155927;23;20189;-91
2023/02/19 15:57:23;;;;;;;1.88;1.00;;;;;;;;;;6155080;23;20221;-90
2023/02/19 16:01:04;;;;;;;1.60;1.00;;;;;;;;;;6154732;23;20212;-92
2023/02/19 16:04:12;;;;;;;2.13;1.00;;;;;;;;;;6156759;23;20240;-89
2023/02/19 16:07:27;;;;;;;3.15;1.30;;;;;;;;;;6155840;23;20230;-89
2023/02/19 16:10:34;;;;;;;3.40;1.15;;;;;;;;;;6156850;23;20177;-91
2023/02/19 16:13:40;;;;;;;4.03;1.58;;;;;;;;;;6156541;23;20195;-91
2023/02/19 16:16:48;;;;;;;4.22;1.38;;;;;;;;;;6155500;23;20172;-90
2023/02/19 16:20:07;;;;;;;4.95;1.20;;;;;;;;;;6156028;23;20172;-92
2023/02/19 16:23:14;;;;;;;8.23;1.58;;;;;;;;;;6155440;23;20244;-90
2023/02/19 16:26:22;;;;;;;4.78;1.17;;;;;;;;;;6155158;23;20261;-91
2023/02/19 16:29:28;;;;;;;3.60;1.10;;;;;;;;;;6154772;23;20519;-90
2023/02/19 16:32:33;;;;;;;1.98;0.98;;;;;;;;;;6155059;23;20289;-90
2023/02/19 16:35:41;;;;;;;2.13;1.20;;;;;;;;;;6154171;23;20744;-89
2023/02/19 16:39:05;;;;;;;3.15;1.58;;;;;;;;;;6153880;23;20172;-89
2023/02/19 16:42:15;;;;;;;6.93;1.77;;;;;;;;;;6154725;23;20193;-90
2023/02/19 16:45:21;;;;;;;4.95;1.60;;;;;;;;;;6154812;23;20235;-88
2023/02/19 16:48:27;;;;;;;3.92;1.75;;;;;;;;;;6154696;23;20284;-91
2023/02/19 16:51:32;;;;;;;2.67;1.30;;;;;;;;;;6154341;23;20299;-91
2023/02/19 16:54:38;;;;;;;3.88;1.38;;;;;;;;;;6154651;23;20192;-91
2023/02/19 16:57:45;;;;;;;3.58;1.30;;;;;;;;;;6152517;23;20220;-92
2023/02/19 17:01:25;;;;;;;4.68;1.75;;;;;;;;;;6152404;23;20217;-90
2023/02/19 17:04:34;;;;;;;6.00;1.90;;;;;;;;;;6155819;23;20168;-91
2023/02/19 17:07:40;;;;;;;4.78;1.90;;;;;;;;;;6153088;23;20177;-90
2023/02/19 17:10:48;;;;;;;2.08;1.20;;;;;;;;;;6151886;23;20181;-89
2023/02/19 17:13:57;;;;;;;8.43;3.70;;;;;;;;;;6153491;23;20192;-91
2023/02/19 17:17:04;;;;;;;2.75;1.70;;;;;;;;;;6151782;23;20176;-91
2023/02/19 17:20:18;;;;;;;5.15;1.73;;;;;;;;;;6150976;23;20284;-92
2023/02/19 17:23:24;;;;;;;5.35;1.70;;;;;;;;;;6152822;23;20172;-90
2023/02/19 17:26:31;;;;;;;4.28;1.60;;;;;;;;;;6154134;23;20180;-91
2023/02/19 17:29:38;;;;;;;4.40;1.75;;;;;;;;;;6153331;23;20173;-90
2023/02/19 17:32:43;;;;;;;6.18;1.73;;;;;;;;;;6152184;23;20172;-89
2023/02/19 17:35:49;;;;;;;4.05;1.90;;;;;;;;;;6153495;23;20195;-89
2023/02/19 17:38:54;;;;;;;7.68;1.77;;;;;;;;;;6155032;23;20240;-89
2023/02/19 17:42:11;;;;;;;2.67;1.40;;;;;;;;;;6153782;23;20258;-90
2023/02/19 17:45:18;;;;;;;2.40;1.27;;;;;;;;;;6156263;23;20229;-91
2023/02/19 17:48:24;;;;;;;3.58;1.48;;;;;;;;;;6153690;23;20184;-92
2023/02/19 17:51:30;;;;;;;2.22;1.13;;;;;;;;;;6157480;23;20220;-91
2023/02/19 17:54:35;;;;;;;3.97;1.77;;;;;;;;;;6153741;23;20191;-89
2023/02/19 17:57:40;;;;;;;4.30;1.55;;;;;;;;;;6154265;23;20241;-89
2023/02/19 23:17:00;;;;;;;4.03;1.85;;;;;;;;;;6118846;23;20454;31
2023/02/19 23:20:36;;;;;;;6.70;2.42;;;;;;;;;;6141002;23;20178;-89
2023/02/19 23:23:43;;;;;;;5.15;2.13;;;;;;;;;;6122965;23;20168;-89
2023/02/19 23:26:49;;;;;;;4.85;1.90;;;;;;;;;;6140577;23;20189;-88
2023/02/19 23:29:54;;;;;;;5.15;2.10;;;;;;;;;;6124031;23;20222;-90
2023/02/19 23:33:00;;;;;;;6.80;1.70;;;;;;;;;;6122291;23;20169;-88
2023/02/19 23:36:06;;;;;;;6.82;1.92;;;;;;;;;;6123276;23;20249;-90
2023/02/19 23:39:14;;;;;;;7.72;2.30;;;;;;;;;;6140876;23;20172;-90
2023/02/19 23:42:19;;;;;;;5.75;2.13;;;;;;;;;;6122131;23;20185;-88
2023/02/19 23:45:24;;;;;;;8.57;2.75;;;;;;;;;;6122320;23;20176;-89
2023/02/19 23:48:29;;;;;;;8.70;2.67;;;;;;;;;;6138914;23;20198;-90
2023/02/19 23:51:34;;;;;;;4.53;2.38;;;;;;;;;;6139627;23;20177;-90
2023/02/19 23:54:41;;;;;;;10.30;3.60;;;;;;;;;;6138571;23;20193;-91
2023/02/19 23:57:47;;;;;;;11.30;4.40;;;;;;;;;;6139865;23;20172;-89
